Time;durP1;ratioP1;P1;durP2;ratioP2;P2;SDS_P1;SDS_P2;PMS_P1;PMS_P2;Temp;Humidity;BMP_temperature;BMP_pressure;BME280_temperature;BME280_humidity;BME280_pressure;Samples;Min_cycle;Max_cycle;Signal;HPM_P1;HPM_P2
2022/12/01 00:00:43;;;;;;;36.25;13.07;;;;;;;-148.88;100.00;77601.66;5054794;28;20108;-77
2022/12/01 00:03:09;;;;;;;35.30;13.10;;;;;;;-148.88;100.00;77593.53;5054635;28;20103;-77
2022/12/01 00:05:34;;;;;;;38.85;13.15;;;;;;;-148.88;100.00;77589.47;5054564;28;20086;-77
2022/12/01 00:08:00;;;;;;;28.33;12.18;;;;;;;-148.88;100.00;77591.50;5054687;28;20040;-77
2022/12/01 00:10:26;;;;;;;32.03;12.57;;;;;;;-148.88;100.00;77599.63;5054476;28;20028;-77
2022/12/01 00:12:59;;;;;;;29.45;11.85;;;;;;;-148.88;100.00;77601.66;5055069;28;20079;-77
2022/12/01 00:15:27;;;;;;;30.17;12.52;;;;;;;-148.88;100.00;77599.63;5054836;28;20025;-77
2022/12/01 00:17:52;;;;;;;32.65;13.30;;;;;;;-148.88;100.00;77601.66;5053161;28;20110;-77
2022/12/01 00:20:18;;;;;;;32.30;13.55;;;;;;;-148.88;100.00;77597.59;5054433;28;20383;-77
2022/12/01 00:22:47;;;;;;;37.22;13.63;;;;;;;-148.88;100.00;77591.50;5054260;28;20074;-77
2022/12/01 00:25:15;;;;;;;34.85;13.80;;;;;;;-148.88;100.00;77607.78;5054303;28;20099;-77
2022/12/01 00:27:41;;;;;;;37.50;13.48;;;;;;;-148.88;100.00;77597.59;5054326;28;20025;-76
2022/12/01 00:30:10;;;;;;;39.22;14.70;;;;;;;-148.88;100.00;77605.75;5054190;28;20396;-77
2022/12/01 00:32:36;;;;;;;37.17;14.65;;;;;;;-148.88;100.00;77601.66;5054828;28;20071;-76
2022/12/01 00:35:02;;;;;;;37.05;13.90;;;;;;;-148.88;100.00;77597.59;5054419;28;20037;-77
2022/12/01 00:37:30;;;;;;;37.78;13.45;;;;;;;-148.88;100.00;77597.59;5054355;28;20112;-77
2022/12/01 00:39:55;;;;;;;34.63;14.07;;;;;;;-148.88;100.00;77597.59;5052684;28;20438;-77
2022/12/01 00:42:20;;;;;;;41.92;14.32;;;;;;;-148.88;100.00;77605.75;5054230;28;20021;-77
2022/12/01 00:44:46;;;;;;;39.03;14.18;;;;;;;-148.88;100.00;77597.59;5053839;28;20052;-77
2022/12/01 00:47:12;;;;;;;41.63;13.95;;;;;;;-148.88;100.00;77593.53;5053872;28;20090;-77
2022/12/01 00:49:37;;;;;;;36.92;13.45;;;;;;;-148.88;100.00;77603.69;5052418;28;20021;-77
2022/12/01 00:52:03;;;;;;;37.55;13.63;;;;;;;-148.88;100.00;77601.66;5052553;28;20418;-77
2022/12/01 00:54:30;;;;;;;37.75;14.38;;;;;;;-148.88;100.00;77607.78;5053647;28;20103;-77
2022/12/01 00:56:57;;;;;;;42.72;14.13;;;;;;;-148.88;100.00;77605.75;5053671;28;20025;-77
2022/12/01 00:59:22;;;;;;;43.25;14.98;;;;;;;-148.88;100.00;77609.81;5054013;28;20055;-77
2022/12/01 01:01:48;;;;;;;41.63;14.68;;;;;;;-148.88;100.00;77609.81;5053657;28;20096;-77
2022/12/01 01:04:13;;;;;;;50.70;15.10;;;;;;;-148.88;100.00;77601.66;5053530;28;20028;-77
2022/12/01 01:06:39;;;;;;;42.88;14.63;;;;;;;-148.88;100.00;77613.88;5052972;28;20074;-77
2022/12/01 01:09:04;;;;;;;42.90;14.45;;;;;;;-148.88;100.00;77619.97;5063831;28;20567;-77
2022/12/01 01:11:29;;;;;;;39.13;14.02;;;;;;;-148.88;100.00;77619.97;5058556;28;20029;-76
2022/12/01 01:13:55;;;;;;;34.53;13.75;;;;;;;-148.88;100.00;77626.06;5052165;28;20055;-77
2022/12/01 01:16:20;;;;;;;43.22;13.88;;;;;;;-148.88;100.00;77617.94;5053295;28;20060;-77
2022/12/01 01:18:47;;;;;;;46.83;16.00;;;;;;;-148.88;100.00;77622.00;5053373;28;20079;-77
2022/12/01 01:21:14;;;;;;;49.25;15.18;;;;;;;-148.88;100.00;77630.13;5053261;28;20463;-77
2022/12/01 01:23:40;;;;;;;46.75;15.43;;;;;;;-148.88;100.00;77617.94;5053159;28;20385;-77
2022/12/01 01:26:13;;;;;;;43.72;15.23;;;;;;;-148.88;100.00;77622.00;5053188;28;20112;-77
2022/12/01 01:28:40;;;;;;;39.50;14.45;;;;;;;-148.88;100.00;77626.06;5053579;28;20025;-77
2022/12/01 01:31:07;;;;;;;38.50;14.43;;;;;;;-148.88;100.00;77628.09;5051758;28;20032;-77
2022/12/01 01:33:32;;;;;;;41.65;14.57;;;;;;;-148.88;100.00;77632.16;5053063;28;20029;-77
2022/12/01 01:35:59;;;;;;;43.38;15.43;;;;;;;-148.88;100.00;77634.19;5052953;28;20029;-77
2022/12/01 01:38:25;;;;;;;45.25;15.27;;;;;;;-148.88;100.00;77628.09;5053208;28;20388;-77
2022/12/01 01:40:50;;;;;;;42.30;15.52;;;;;;;-148.88;100.00;77626.06;5052904;28;20471;-77
2022/12/01 01:43:36;;;;;;;49.95;16.63;;;;;;;-148.88;100.00;77638.25;5052940;28;20380;-77
2022/12/01 01:46:01;;;;;;;48.10;16.48;;;;;;;-148.88;100.00;77642.31;5051955;28;20032;-77
2022/12/01 01:48:27;;;;;;;53.33;15.07;;;;;;;-148.88;100.00;77638.25;5052876;28;20027;-77
2022/12/01 01:50:52;;;;;;;116.63;19.63;;;;;;;-148.88;100.00;77646.38;5052755;28;20033;-77
2022/12/01 01:53:17;;;;;;;81.93;18.85;;;;;;;-148.88;100.00;77644.34;5053050;28;20017;-77
2022/12/01 01:55:43;;;;;;;122.15;18.88;;;;;;;-148.88;100.00;77638.25;5052664;28;20376;-77
2022/12/01 01:58:09;;;;;;;97.50;19.80;;;;;;;-148.88;100.00;77646.38;5052768;28;20021;-77
2022/12/01 02:00:38;;;;;;;93.90;18.42;;;;;;;-148.88;100.00;77642.31;5052918;28;20075;-77
2022/12/01 02:03:03;;;;;;;66.65;18.95;;;;;;;-148.88;100.00;77646.38;5052577;28;20491;-77
2022/12/01 02:05:32;;;;;;;73.13;18.90;;;;;;;-148.88;100.00;77650.44;5052533;28;20120;-77
2022/12/01 02:08:00;;;;;;;49.47;16.02;;;;;;;-148.88;100.00;77642.31;5052527;28;20406;-77
2022/12/01 02:10:57;;;;;;;67.50;17.85;;;;;;;-148.88;100.00;77642.31;5052481;28;20498;-77
2022/12/01 02:13:38;;;;;;;57.38;17.58;;;;;;;-148.88;100.00;77652.47;5051288;28;20033;-77
2022/12/01 02:16:13;;;;;;;60.25;17.90;;;;;;;-148.88;100.00;77652.47;5052858;28;20108;-77
2022/12/01 02:18:47;;;;;;;56.38;17.02;;;;;;;-148.88;100.00;77646.38;5054801;28;20032;-77
2022/12/01 02:21:20;;;;;;;51.17;16.05;;;;;;;-148.88;100.00;77646.38;5056948;28;20387;-77
2022/12/01 02:24:23;;;;;;;43.58;15.35;;;;;;;-148.88;100.00;77638.25;5056915;28;20025;-77
2022/12/01 02:26:58;;;;;;;57.58;16.23;;;;;;;-148.88;100.00;77638.25;5055172;28;20082;-77
2022/12/01 02:29:42;;;;;;;79.57;17.70;;;;;;;-148.88;100.00;77644.34;5055101;28;20047;-77
2022/12/01 02:32:17;;;;;;;58.83;19.02;;;;;;;-148.88;100.00;77638.25;5055072;28;20029;-77
2022/12/01 02:34:48;;;;;;;62.13;16.55;;;;;;;-148.88;100.00;77638.25;5056408;28;20100;-77
2022/12/01 02:37:42;;;;;;;50.72;16.42;;;;;;;-148.88;100.00;77636.22;5055118;28;20021;-77
2022/12/01 02:40:32;;;;;;;59.83;16.35;;;;;;;-148.88;100.00;77638.25;5054971;28;20024;-77
2022/12/01 02:43:04;;;;;;;70.18;18.33;;;;;;;-148.88;100.00;77646.38;5056493;28;20037;-77
2022/12/01 02:45:47;;;;;;;72.47;18.23;;;;;;;-148.88;100.00;77642.31;5056568;28;20025;-77
2022/12/01 02:48:24;;;;;;;59.63;17.73;;;;;;;-148.88;100.00;77634.19;5056242;28;20033;-77
2022/12/01 02:50:51;;;;;;;127.60;22.58;;;;;;;-148.88;100.00;77642.31;5056371;28;20079;-77
2022/12/01 02:53:18;;;;;;;60.33;17.30;;;;;;;-148.88;100.00;77638.25;5055927;28;20021;-77
2022/12/01 02:55:52;;;;;;;73.13;18.63;;;;;;;-148.88;100.00;77644.34;5056233;28;20021;-77
2022/12/01 02:58:18;;;;;;;64.25;18.23;;;;;;;-148.88;100.00;77648.41;5056166;28;20040;-77
2022/12/01 03:01:04;;;;;;;69.82;19.00;;;;;;;-148.88;100.00;77654.50;5055972;28;20020;-76
2022/12/01 03:03:50;;;;;;;94.45;20.00;;;;;;;-148.88;100.00;77648.41;5054824;28;20474;-77
2022/12/01 03:06:29;;;;;;;78.50;20.52;;;;;;;-148.88;100.00;77658.56;5054603;28;20029;-77
2022/12/01 03:09:00;;;;;;;77.60;21.27;;;;;;;-148.88;100.00;77666.69;5055772;28;20055;-77
2022/12/01 03:11:38;;;;;;;86.78;21.52;;;;;;;-148.88;100.00;77668.72;5054420;28;20025;-77
2022/12/01 03:18:07;;;;;;;76.82;19.40;;;;;;;-148.88;100.00;77660.59;5036735;28;20037;-88
2022/12/01 03:20:43;;;;;;;116.55;22.75;;;;;;;-148.88;100.00;77658.56;5035748;28;20045;-88
2022/12/01 03:23:18;;;;;;;67.53;19.42;;;;;;;-148.88;100.00;77658.56;5046708;23;20072;-77
2022/12/01 03:25:46;;;;;;;65.82;19.33;;;;;;;-148.88;100.00;77654.50;5055729;28;20033;-77
2022/12/01 03:28:16;;;;;;;78.20;21.80;;;;;;;-148.88;100.00;77658.56;5094254;22;20111;-76
2022/12/01 03:30:44;;;;;;;85.55;21.20;;;;;;;-148.88;100.00;77666.69;5094180;28;20474;-76
2022/12/01 03:33:18;;;;;;;78.80;21.50;;;;;;;-148.88;100.00;77654.50;5095395;28;20084;-76
2022/12/01 03:35:48;;;;;;;82.30;21.45;;;;;;;-148.88;100.00;77662.63;5111841;28;20024;-76
2022/12/01 03:38:18;;;;;;;79.03;21.52;;;;;;;-148.88;100.00;77658.56;5111546;28;20101;-76
2022/12/01 03:40:46;;;;;;;79.65;22.77;;;;;;;-148.88;100.00;77654.50;5095480;28;20056;-76
2022/12/01 03:43:20;;;;;;;94.55;24.02;;;;;;;-148.88;100.00;77660.59;5095301;28;20088;-76
2022/12/01 03:46:01;;;;;;;90.50;23.13;;;;;;;-148.88;100.00;77658.56;5095468;28;20031;-76
2022/12/01 03:48:29;;;;;;;77.68;21.88;;;;;;;-148.88;100.00;77666.69;5110842;28;20114;-76
2022/12/01 03:51:03;;;;;;;66.88;19.73;;;;;;;-148.88;100.00;77670.75;5095157;28;20532;-75
2022/12/01 03:53:58;;;;;;;78.82;22.10;;;;;;;-148.88;100.00;77676.88;5094992;28;20039;-76
2022/12/01 03:56:30;;;;;;;78.43;23.38;;;;;;;-148.88;100.00;77672.78;5085436;28;20032;-76
2022/12/01 03:58:59;;;;;;;63.25;21.80;;;;;;;-148.88;100.00;77666.69;5093893;28;20016;-76
2022/12/01 04:01:31;;;;;;;66.30;21.15;;;;;;;-148.88;100.00;77678.91;5095060;28;20056;-76
2022/12/01 04:04:03;;;;;;;63.00;20.38;;;;;;;-148.88;100.00;77668.72;5095016;28;20028;-76
2022/12/01 04:06:28;;;;;;;71.50;21.73;;;;;;;-148.88;100.00;77670.75;5110905;28;20062;-76
2022/12/01 04:08:53;;;;;;;74.72;23.55;;;;;;;-148.88;100.00;77670.75;5094776;28;20482;-76
2022/12/01 04:14:02;;;;;;;69.53;22.60;;;;;;;-148.88;100.00;77668.72;5095545;28;20073;-76
2022/12/01 04:16:28;;;;;;;68.57;23.70;;;;;;;-148.88;100.00;77674.84;5094825;28;20039;-76
2022/12/01 04:18:53;;;;;;;60.30;20.77;;;;;;;-148.88;100.00;77678.91;5094701;28;20026;-76
2022/12/01 04:21:18;;;;;;;69.80;23.30;;;;;;;-148.88;100.00;77682.97;5094471;28;20016;-76
2022/12/01 04:23:58;;;;;;;70.38;24.05;;;;;;;-148.88;100.00;77682.97;5094545;28;20039;-76
2022/12/01 04:26:24;;;;;;;71.18;24.40;;;;;;;-148.88;100.00;77697.19;5094594;28;20020;-76
2022/12/01 04:28:49;;;;;;;66.97;23.42;;;;;;;-148.88;100.00;77697.19;5094207;28;20028;-76
2022/12/01 04:31:15;;;;;;;69.65;24.13;;;;;;;-148.88;100.00;77693.13;5094178;28;20024;-76
2022/12/01 04:33:40;;;;;;;77.68;26.15;;;;;;;-148.88;100.00;77693.13;5094124;28;20032;-75
2022/12/01 04:36:06;;;;;;;71.00;24.45;;;;;;;-148.88;100.00;77687.03;5094136;28;20089;-77
2022/12/01 04:38:31;;;;;;;83.10;26.08;;;;;;;-148.88;100.00;77695.16;5094008;28;20080;-76
2022/12/01 04:40:57;;;;;;;88.43;29.00;;;;;;;-148.88;100.00;77695.16;5093783;28;20024;-75
2022/12/01 04:43:22;;;;;;;104.45;30.15;;;;;;;-148.88;100.00;77705.31;5093869;28;20027;-75
2022/12/01 04:45:48;;;;;;;93.93;29.23;;;;;;;-148.88;100.00;77711.41;5094107;28;20028;-76
2022/12/01 04:48:13;;;;;;;91.78;29.08;;;;;;;-148.88;100.00;77707.34;5094697;28;20039;-75
2022/12/01 04:50:39;;;;;;;92.22;29.77;;;;;;;-148.88;100.00;77703.28;5094619;28;20063;-75
2022/12/01 04:53:05;;;;;;;92.13;28.80;;;;;;;-148.88;100.00;77705.31;5093928;28;20024;-75
2022/12/01 04:55:30;;;;;;;89.78;27.13;;;;;;;-148.88;100.00;77707.34;5093799;28;20565;-75
2022/12/01 04:57:56;;;;;;;96.30;30.65;;;;;;;-148.88;100.00;77707.34;5093612;28;20032;-75
2022/12/01 05:00:22;;;;;;;88.00;27.85;;;;;;;-148.88;100.00;77713.44;5109249;28;20466;-75
2022/12/01 05:02:48;;;;;;;96.45;29.55;;;;;;;-148.88;100.00;77711.41;5093698;28;20134;-75
2022/12/01 05:05:13;;;;;;;95.88;29.50;;;;;;;-148.88;100.00;77711.41;5093889;28;20020;-75
2022/12/01 05:07:39;;;;;;;96.82;28.15;;;;;;;-148.88;100.00;77711.41;5109203;28;20160;-75
2022/12/01 05:10:05;;;;;;;102.85;30.45;;;;;;;-148.88;100.00;77713.44;5093703;28;20099;-75
2022/12/01 05:12:31;;;;;;;101.05;28.70;;;;;;;-148.88;100.00;77711.41;5093269;28;20497;-75
2022/12/01 05:14:56;;;;;;;97.85;29.58;;;;;;;-148.88;100.00;77711.41;5108944;28;20032;-75
2022/12/01 05:17:21;;;;;;;86.00;28.38;;;;;;;-148.88;100.00;77709.38;5093347;28;20053;-76
2022/12/01 05:22:31;;;;;;;100.90;28.65;;;;;;;-148.88;100.00;77709.38;5093436;28;20039;-75
2022/12/01 05:24:56;;;;;;;101.20;29.33;;;;;;;-148.88;100.00;77719.53;5093756;28;20107;-76
2022/12/01 05:27:21;;;;;;;105.40;34.78;;;;;;;-148.88;100.00;77729.69;5094468;28;20032;-76
2022/12/01 05:29:47;;;;;;;108.35;32.80;;;;;;;-148.88;100.00;77727.66;5093268;28;20024;-76
2022/12/01 05:32:12;;;;;;;100.53;30.58;;;;;;;-148.88;100.00;77725.63;5108765;28;20074;-75
2022/12/01 05:34:37;;;;;;;110.55;32.45;;;;;;;-148.88;100.00;77729.69;5093370;28;20024;-77
2022/12/01 05:37:03;;;;;;;111.88;32.45;;;;;;;-148.88;100.00;77727.66;5094446;28;20027;-77
2022/12/01 05:39:28;;;;;;;108.13;32.67;;;;;;;-148.88;100.00;77725.63;5094385;28;20492;-78
2022/12/01 05:41:53;;;;;;;104.22;30.20;;;;;;;-148.88;100.00;77731.72;5112664;28;20482;-77
2022/12/01 05:44:19;;;;;;;96.95;32.22;;;;;;;-148.88;100.00;77725.63;5108988;28;20048;-77
2022/12/01 05:46:44;;;;;;;101.25;31.30;;;;;;;-148.88;100.00;77725.63;5093331;28;20069;-77
2022/12/01 05:49:10;;;;;;;111.40;33.33;;;;;;;-148.88;100.00;77723.59;5093074;28;20470;-77
2022/12/01 05:51:35;;;;;;;100.82;31.77;;;;;;;-148.88;100.00;77719.53;5108451;28;20028;-77
2022/12/01 05:54:01;;;;;;;101.72;32.30;;;;;;;-148.88;100.00;77723.59;5107916;28;20080;-77
2022/12/01 05:56:26;;;;;;;106.85;32.03;;;;;;;-148.88;100.00;77719.53;5093844;28;20078;-78
2022/12/01 05:58:51;;;;;;;94.35;31.52;;;;;;;-148.88;100.00;77723.59;5109955;28;20186;-77
2022/12/01 06:01:17;;;;;;;97.68;31.30;;;;;;;-148.88;100.00;77723.59;5094190;28;20126;-77
2022/12/01 06:03:42;;;;;;;96.30;31.52;;;;;;;-148.88;100.00;77729.69;5109521;28;20024;-77
2022/12/01 06:06:08;;;;;;;99.38;31.42;;;;;;;-148.88;100.00;77731.72;5091585;28;20119;-77
2022/12/01 06:08:33;;;;;;;95.10;31.02;;;;;;;-148.88;100.00;77727.66;5093159;28;20101;-78
2022/12/01 06:10:59;;;;;;;101.20;31.90;;;;;;;-148.88;100.00;77731.72;5092845;28;20376;-77
2022/12/01 06:13:24;;;;;;;91.95;30.45;;;;;;;-148.88;100.00;77743.94;5093326;28;20481;-77
2022/12/01 06:16:01;;;;;;;95.68;30.65;;;;;;;-148.88;100.00;77733.75;5094470;28;20024;-78
2022/12/01 06:18:29;;;;;;;91.35;30.83;;;;;;;-148.88;100.00;77739.84;5110682;28;20069;-79
2022/12/01 06:20:55;;;;;;;95.20;32.30;;;;;;;-148.88;100.00;77739.84;5094984;28;20024;-78
2022/12/01 06:23:20;;;;;;;99.32;32.38;;;;;;;-148.88;100.00;77739.84;5094965;28;20079;-78
2022/12/01 06:25:46;;;;;;;101.05;31.60;;;;;;;-148.88;100.00;77745.97;5095332;28;20074;-79
2022/12/01 06:28:11;;;;;;;89.75;32.13;;;;;;;-148.88;100.00;77737.81;5095478;28;20032;-79
2022/12/01 06:30:36;;;;;;;95.70;31.33;;;;;;;-148.88;100.00;77745.97;5095066;28;20078;-78
2022/12/01 06:33:02;;;;;;;92.20;31.02;;;;;;;-148.88;100.00;77743.94;5094151;28;20542;-78
2022/12/01 06:35:27;;;;;;;89.78;30.83;;;;;;;-148.88;100.00;77748.00;5109895;28;20032;-78
2022/12/01 06:37:53;;;;;;;86.25;29.77;;;;;;;-148.88;100.00;77752.06;5094986;28;20055;-78
2022/12/01 06:40:18;;;;;;;89.38;29.90;;;;;;;-148.88;100.00;77758.16;5094353;28;20016;-77
2022/12/01 06:42:44;;;;;;;78.82;27.15;;;;;;;-148.88;100.00;77760.19;5092705;28;20446;-77
2022/12/01 06:45:09;;;;;;;84.28;29.42;;;;;;;-148.88;100.00;77776.44;5110500;28;20389;-78
2022/12/01 06:47:35;;;;;;;80.50;29.05;;;;;;;-148.88;100.00;77774.41;5094907;28;20436;-78
2022/12/01 06:50:01;;;;;;;77.82;28.73;;;;;;;-148.88;100.00;77776.44;5094602;28;20023;-78
2022/12/01 06:52:26;;;;;;;86.28;30.65;;;;;;;-148.88;100.00;77766.28;5094566;28;20032;-78
2022/12/01 06:54:52;;;;;;;81.35;27.92;;;;;;;-148.88;100.00;77768.31;5094862;28;20429;-78
2022/12/01 06:57:17;;;;;;;76.63;28.98;;;;;;;-148.88;100.00;77764.25;5095142;28;20020;-78
2022/12/01 06:59:42;;;;;;;81.55;26.25;;;;;;;-148.88;100.00;77772.38;5095120;28;20016;-78
2022/12/01 07:02:10;;;;;;;75.90;28.33;;;;;;;-148.88;100.00;77772.38;5094914;28;20032;-78
2022/12/01 07:04:35;;;;;;;72.57;27.33;;;;;;;-148.88;100.00;77774.41;5096773;28;20028;-78
2022/12/01 07:07:00;;;;;;;83.85;28.88;;;;;;;-148.88;100.00;77772.38;5098500;28;20364;-78
2022/12/01 07:09:26;;;;;;;77.55;27.20;;;;;;;-148.88;100.00;77778.47;5099146;28;20028;-78
2022/12/01 07:11:51;;;;;;;77.03;27.75;;;;;;;-148.88;100.00;77780.50;5114540;28;20212;-78
2022/12/01 07:14:25;;;;;;;86.88;28.38;;;;;;;-148.88;100.00;77770.34;5114527;28;20032;-78
2022/12/01 07:16:50;;;;;;;84.55;29.13;;;;;;;-148.88;100.00;77778.47;5097197;28;20024;-77
2022/12/01 07:19:16;;;;;;;78.38;28.52;;;;;;;-148.88;100.00;77784.56;5098156;28;20031;-78
2022/12/01 07:21:41;;;;;;;90.40;31.80;;;;;;;-148.88;100.00;77780.50;5099592;28;20027;-79
2022/12/01 07:24:07;;;;;;;85.97;30.17;;;;;;;-148.88;100.00;77780.50;5098664;28;20077;-78
2022/12/01 07:26:32;;;;;;;91.60;30.80;;;;;;;-148.88;100.00;77778.47;5098696;28;20077;-78
2022/12/01 07:28:57;;;;;;;83.65;28.20;;;;;;;-148.88;100.00;77780.50;5097218;28;20027;-78
2022/12/01 07:31:23;;;;;;;90.82;29.80;;;;;;;-148.88;100.00;77788.63;5098301;28;20367;-78
2022/12/01 07:33:48;;;;;;;82.60;28.75;;;;;;;-148.88;100.00;77784.56;5098051;28;20110;-78
2022/12/01 07:36:14;;;;;;;82.20;30.08;;;;;;;-148.88;100.00;77776.44;5098255;28;20030;-78
2022/12/01 07:38:40;;;;;;;80.80;30.70;;;;;;;-148.88;100.00;77778.47;5097845;28;20108;-78
2022/12/01 07:41:13;;;;;;;95.63;31.40;;;;;;;-148.88;100.00;77778.47;5097748;28;20016;-78
2022/12/01 07:43:39;;;;;;;85.95;29.30;;;;;;;-148.88;100.00;77772.38;5098574;28;20052;-79
2022/12/01 07:46:07;;;;;;;86.30;28.67;;;;;;;-148.88;100.00;77768.31;5098263;28;20482;-78
2022/12/01 07:48:33;;;;;;;89.80;30.55;;;;;;;-148.88;100.00;77774.41;5098653;28;20110;-78
2022/12/01 07:50:58;;;;;;;79.07;30.00;;;;;;;-148.88;100.00;77772.38;5098800;28;20126;-78
2022/12/01 07:53:23;;;;;;;90.85;29.33;;;;;;;-148.88;100.00;77778.47;5111395;28;20043;-78
2022/12/01 07:55:51;;;;;;;78.00;27.45;;;;;;;-148.88;100.00;77776.44;5099182;28;20455;-79
2022/12/01 07:58:17;;;;;;;88.15;29.95;;;;;;;-148.88;100.00;77780.50;5098559;28;20032;-78
2022/12/01 08:00:42;;;;;;;79.18;29.20;;;;;;;-148.88;100.00;77784.56;5097331;28;20535;-77
2022/12/01 08:03:07;;;;;;;71.57;26.83;;;;;;;-148.88;100.00;77780.50;5096017;28;20019;-77
2022/12/01 08:05:33;;;;;;;84.95;29.65;;;;;;;-148.88;100.00;77776.44;5096299;28;20024;-77
2022/12/01 08:07:58;;;;;;;85.00;28.23;;;;;;;-148.88;100.00;77776.44;5096217;28;20024;-77
2022/12/01 08:10:23;;;;;;;76.80;27.63;;;;;;;-148.88;100.00;77780.50;5095688;28;20026;-78
2022/12/01 08:12:49;;;;;;;85.50;28.17;;;;;;;-148.88;100.00;77782.53;5095724;28;20418;-77
2022/12/01 08:15:14;;;;;;;86.18;30.27;;;;;;;-148.88;100.00;77780.50;5095500;28;20020;-78
2022/12/01 08:17:39;;;;;;;82.18;28.23;;;;;;;-148.88;100.00;77780.50;5095588;28;20024;-77
2022/12/01 08:20:06;;;;;;;88.28;29.73;;;;;;;-148.88;100.00;77782.53;5096378;28;20024;-77
2022/12/01 08:22:31;;;;;;;87.13;28.92;;;;;;;-148.88;100.00;77784.56;5111759;28;20020;-78
2022/12/01 08:24:57;;;;;;;90.50;30.08;;;;;;;-148.88;100.00;77786.59;5095840;28;20020;-77
2022/12/01 08:27:22;;;;;;;87.00;29.80;;;;;;;-148.88;100.00;77784.56;5095979;28;20039;-77
2022/12/01 08:29:47;;;;;;;90.40;29.80;;;;;;;-148.88;100.00;77792.69;5096555;28;20031;-78
2022/12/01 08:32:15;;;;;;;87.80;30.38;;;;;;;-148.88;100.00;77790.66;5095740;28;20050;-77
2022/12/01 08:34:40;;;;;;;94.50;29.67;;;;;;;-148.88;100.00;77794.72;5095090;28;20028;-77
2022/12/01 08:37:05;;;;;;;85.18;29.55;;;;;;;-148.88;100.00;77788.63;5095391;28;20157;-77
2022/12/01 08:39:31;;;;;;;87.22;28.10;;;;;;;-148.88;100.00;77802.84;5095250;28;20378;-78
2022/12/01 08:41:56;;;;;;;85.50;29.08;;;;;;;-148.88;100.00;77796.75;5095432;28;20493;-77
2022/12/01 08:44:21;;;;;;;89.05;28.98;;;;;;;-148.88;100.00;77800.81;5095017;28;20474;-77
2022/12/01 08:46:47;;;;;;;86.97;31.20;;;;;;;-148.88;100.00;77792.69;5095047;28;20024;-77
2022/12/01 08:49:12;;;;;;;84.13;29.70;;;;;;;-148.88;100.00;77796.75;5111048;28;20031;-77
2022/12/01 08:51:37;;;;;;;86.38;29.10;;;;;;;-148.88;100.00;77794.72;5095508;28;20020;-77
2022/12/01 08:54:03;;;;;;;90.68;28.95;;;;;;;-148.88;100.00;77792.69;5095272;28;20095;-77
2022/12/01 08:56:32;;;;;;;86.60;29.80;;;;;;;-148.88;100.00;77788.63;5095140;28;20034;-77
2022/12/01 08:58:57;;;;;;;95.72;31.08;;;;;;;-148.88;100.00;77788.63;5095437;28;20024;-77
2022/12/01 09:01:24;;;;;;;94.28;29.85;;;;;;;-148.88;100.00;77788.63;5095121;28;20031;-77
2022/12/01 09:04:03;;;;;;;90.65;29.42;;;;;;;-148.88;100.00;77786.59;5094895;28;20034;-78
2022/12/01 09:06:39;;;;;;;95.75;30.20;;;;;;;-148.88;100.00;77790.66;5095964;28;20020;-78
2022/12/01 09:09:05;;;;;;;92.00;29.77;;;;;;;-148.88;100.00;77790.66;5093186;28;20020;-77
2022/12/01 09:11:31;;;;;;;87.25;29.42;;;;;;;-148.88;100.00;77786.59;5094640;28;20378;-77
2022/12/01 09:13:58;;;;;;;87.10;30.35;;;;;;;-148.88;100.00;77778.47;5094737;28;20069;-77
2022/12/01 09:16:23;;;;;;;87.30;30.08;;;;;;;-148.88;100.00;77772.38;5094568;28;20028;-77
2022/12/01 09:18:49;;;;;;;100.38;29.73;;;;;;;-148.88;100.00;77790.66;5110454;28;20042;-77
2022/12/01 09:21:15;;;;;;;102.38;30.02;;;;;;;-148.88;100.00;77788.63;5094517;28;20062;-77
2022/12/01 09:23:41;;;;;;;91.38;30.65;;;;;;;-148.88;100.00;77788.63;5094848;28;20028;-77
2022/12/01 09:26:07;;;;;;;96.65;28.80;;;;;;;-148.88;100.00;77796.75;5095262;28;20031;-77
2022/12/01 09:28:32;;;;;;;91.32;31.40;;;;;;;-148.88;100.00;77798.78;5093905;28;20100;-77
2022/12/01 09:31:11;;;;;;;83.38;28.38;;;;;;;-148.88;100.00;77817.09;5094651;28;20020;-77
2022/12/01 09:33:37;;;;;;;76.72;26.75;;;;;;;-148.88;100.00;77806.94;5095071;28;20032;-77
2022/12/01 09:36:04;;;;;;;78.53;25.13;;;;;;;-148.88;100.00;77808.97;5094378;28;20050;-77
2022/12/01 09:38:32;;;;;;;76.78;28.13;;;;;;;-148.88;100.00;77821.16;5093759;28;20482;-77
2022/12/01 09:41:10;;;;;;;81.60;27.58;;;;;;;-148.88;100.00;77813.03;5093937;28;20467;-77
2022/12/01 09:43:40;;;;;;;67.03;25.20;;;;;;;-148.88;100.00;77811.00;5096255;28;20020;-78
2022/12/01 09:46:10;;;;;;;74.45;26.35;;;;;;;-148.88;100.00;77808.97;5093682;28;20474;-76
2022/12/01 09:48:47;;;;;;;84.82;26.65;;;;;;;-148.88;100.00;77796.75;5094041;28;20031;-76
2022/12/01 09:51:17;;;;;;;75.57;27.05;;;;;;;-148.88;100.00;77800.81;5109243;28;20061;-77
2022/12/01 09:53:44;;;;;;;72.38;26.70;;;;;;;-148.88;100.00;77794.72;5093307;28;20032;-76
2022/12/01 09:56:35;;;;;;;74.70;27.05;;;;;;;-148.88;100.00;77794.72;5093196;28;20019;-76
2022/12/01 09:59:04;;;;;;;77.47;24.70;;;;;;;-148.88;100.00;77802.84;5093559;28;20020;-76
2022/12/01 10:01:36;;;;;;;79.93;27.85;;;;;;;-148.88;100.00;77804.88;5093143;28;20012;-76
2022/12/01 10:04:10;;;;;;;81.10;29.45;;;;;;;-148.88;100.00;77800.81;5093661;28;20103;-76
2022/12/01 10:06:42;;;;;;;77.95;26.65;;;;;;;-148.88;100.00;77790.66;5093154;28;20016;-76
2022/12/01 10:09:29;;;;;;;77.20;28.52;;;;;;;-148.88;100.00;77800.81;5093404;28;20028;-76
2022/12/01 10:12:03;;;;;;;81.57;26.70;;;;;;;-148.88;100.00;77798.78;5093529;28;20138;-76
2022/12/01 10:14:34;;;;;;;74.28;27.55;;;;;;;-148.88;100.00;77798.78;5093011;28;20028;-76
2022/12/01 10:17:34;;;;;;;79.75;27.02;;;;;;;-148.88;100.00;77804.88;5093173;28;20103;-76
2022/12/01 10:20:16;;;;;;;77.13;27.23;;;;;;;-148.88;100.00;77804.88;5093360;28;20050;-76
2022/12/01 10:22:48;;;;;;;77.75;27.13;;;;;;;-148.88;100.00;77796.75;5108673;28;20020;-76
2022/12/01 10:25:22;;;;;;;87.32;27.52;;;;;;;-148.88;100.00;77780.50;5092986;28;20494;-75
2022/12/01 10:28:06;;;;;;;82.07;27.83;;;;;;;-148.88;100.00;77788.63;5092703;28;20035;-76
2022/12/01 10:30:38;;;;;;;;;;;;;;;-148.88;100.00;77788.63;5093364;28;20020;-76
2022/12/01 10:33:20;;;;;;;70.65;26.00;;;;;;;-148.88;100.00;77784.56;5091518;28;19912;-76
2022/12/01 10:35:46;;;;;;;72.07;26.83;;;;;;;-148.88;100.00;77780.50;5108495;28;20023;-76
2022/12/01 10:38:21;;;;;;;77.40;25.25;;;;;;;-148.88;100.00;77768.31;5092859;28;20533;-76
2022/12/01 10:40:49;;;;;;;69.40;24.67;;;;;;;-148.88;100.00;77776.44;5096864;28;20024;-75
2022/12/01 10:43:15;;;;;;;60.88;24.15;;;;;;;-148.88;100.00;77766.28;5096769;28;20477;-77
2022/12/01 10:45:43;;;;;;;66.63;25.30;;;;;;;-148.88;100.00;77762.22;5096714;28;20073;-76
2022/12/01 10:48:18;;;;;;;75.68;24.35;;;;;;;-148.88;100.00;77762.22;5096756;28;20020;-76
2022/12/01 10:50:52;;;;;;;68.28;25.48;;;;;;;-148.88;100.00;77748.00;5096647;28;20444;-76
2022/12/01 10:53:32;;;;;;;62.60;22.45;;;;;;;-148.88;100.00;77735.78;5096566;28;20085;-76
2022/12/01 10:56:03;;;;;;;58.22;21.67;;;;;;;-148.88;100.00;77727.66;5097027;28;20020;-76
2022/12/01 10:58:32;;;;;;;60.35;22.52;;;;;;;-148.88;100.00;77727.66;5097307;28;20020;-76
2022/12/01 11:01:02;;;;;;;62.03;23.92;;;;;;;-148.88;100.00;77719.53;5096499;28;20470;-76
2022/12/01 11:03:31;;;;;;;61.42;23.48;;;;;;;-148.88;100.00;77703.28;5096338;28;20393;-76
2022/12/01 11:05:59;;;;;;;63.55;22.80;;;;;;;-148.88;100.00;77711.41;5096335;28;20028;-76
2022/12/01 11:08:38;;;;;;;59.85;23.02;;;;;;;-148.88;100.00;77703.28;5111995;28;20114;-76
2022/12/01 11:11:03;;;;;;;58.42;22.10;;;;;;;-148.88;100.00;77695.16;5096252;28;20024;-76